NY32 weather

CLOSED Fort Hill Airport
West Bloomfield, New York, United States

Public forecast

Using degrees Fahrenheit for public forecast. Weather courtesy of forecast.io.

Closest aviation weather report (METAR) to Fort Hill Airport

Closest report is Greater Rochester International Airport, 14.1 nm (26.2 km) NNW. Retrieved 2019/10/18 06:54 UTC (60 minutes ago):

KROC 180654Z 31008KT 10SM OVC024 07/04 A2982 RMK AO2 SLP105 T00720039

Closest aviation forecast (TAF) to Fort Hill Airport

Closest forecast is Greater Rochester International Airport, 14.1 nm (26.2 km) NNW. Retrieved 2019/10/18 06:39 UTC (1 hour ago):

TAF KROC 180536Z 1806/1906 31012KT P6SM VCSH OVC020 FM180900 30013G19KT P6SM OVC025 FM181300 30013G19KT P6SM BKN025 FM182100 29009KT P6SM BKN035 FM182300 29007KT P6SM SCT035 FM190500 27004KT P6SM SCT025